sensor_id;sensor_type;location;lat;lon;timestamp;temperature;humidity
52697;DHT22;38593;52.670;6.286;2022-07-23T00:00:30;15.70;99.90
52697;DHT22;38593;52.670;6.286;2022-07-23T00:02:56;15.70;99.90
52697;DHT22;38593;52.670;6.286;2022-07-23T00:05:21;15.70;99.90
52697;DHT22;38593;52.670;6.286;2022-07-23T00:07:47;15.60;99.90
52697;DHT22;38593;52.670;6.286;2022-07-23T00:10:12;15.50;99.90
52697;DHT22;38593;52.670;6.286;2022-07-23T00:12:38;15.50;99.90
52697;DHT22;38593;52.670;6.286;2022-07-23T00:15:04;15.50;99.90
52697;DHT22;38593;52.670;6.286;2022-07-23T00:17:30;15.40;99.90
52697;DHT22;38593;52.670;6.286;2022-07-23T00:19:55;15.40;99.90
52697;DHT22;38593;52.670;6.286;2022-07-23T00:22:21;15.50;99.90
52697;DHT22;38593;52.670;6.286;2022-07-23T00:24:46;15.30;99.90
52697;DHT22;38593;52.670;6.286;2022-07-23T00:27:12;15.30;99.90
52697;DHT22;38593;52.670;6.286;2022-07-23T00:29:37;15.20;99.90
52697;DHT22;38593;52.670;6.286;2022-07-23T00:32:03;15.20;99.90
52697;DHT22;38593;52.670;6.286;2022-07-23T00:34:28;15.20;99.90
52697;DHT22;38593;52.670;6.286;2022-07-23T00:36:54;15.20;99.90
52697;DHT22;38593;52.670;6.286;2022-07-23T00:39:20;15.20;99.90
52697;DHT22;38593;52.670;6.286;2022-07-23T00:41:47;15.10;99.90
52697;DHT22;38593;52.670;6.286;2022-07-23T00:46:48;15.10;99.90
52697;DHT22;38593;52.670;6.286;2022-07-23T00:49:14;15.00;99.90
52697;DHT22;38593;52.670;6.286;2022-07-23T00:51:40;15.20;99.90
52697;DHT22;38593;52.670;6.286;2022-07-23T00:54:05;15.00;99.90
52697;DHT22;38593;52.670;6.286;2022-07-23T00:56:31;15.00;99.90
52697;DHT22;38593;52.670;6.286;2022-07-23T00:58:57;14.90;99.90
52697;DHT22;38593;52.670;6.286;2022-07-23T01:01:22;14.90;99.90
52697;DHT22;38593;52.670;6.286;2022-07-23T01:03:48;14.80;99.90
52697;DHT22;38593;52.670;6.286;2022-07-23T01:06:14;14.80;99.90
52697;DHT22;38593;52.670;6.286;2022-07-23T01:08:39;14.80;99.90
52697;DHT22;38593;52.670;6.286;2022-07-23T01:11:05;14.80;99.90
52697;DHT22;38593;52.670;6.286;2022-07-23T01:13:30;14.80;99.90
52697;DHT22;38593;52.670;6.286;2022-07-23T01:15:56;14.80;99.90
52697;DHT22;38593;52.670;6.286;2022-07-23T01:18:21;14.80;99.90
52697;DHT22;38593;52.670;6.286;2022-07-23T01:20:47;14.70;99.90
52697;DHT22;38593;52.670;6.286;2022-07-23T01:23:12;14.70;99.90
52697;DHT22;38593;52.670;6.286;2022-07-23T01:25:46;14.70;99.90
52697;DHT22;38593;52.670;6.286;2022-07-23T01:28:12;14.60;99.90
52697;DHT22;38593;52.670;6.286;2022-07-23T01:30:37;14.60;99.90
52697;DHT22;38593;52.670;6.286;2022-07-23T01:33:03;14.50;99.90
52697;DHT22;38593;52.670;6.286;2022-07-23T01:35:28;14.50;99.90
52697;DHT22;38593;52.670;6.286;2022-07-23T01:37:54;14.40;99.90
52697;DHT22;38593;52.670;6.286;2022-07-23T01:40:19;14.40;99.90
52697;DHT22;38593;52.670;6.286;2022-07-23T01:42:45;14.40;99.90
52697;DHT22;38593;52.670;6.286;2022-07-23T01:45:10;14.30;99.90
52697;DHT22;38593;52.670;6.286;2022-07-23T01:47:36;14.30;99.90
52697;DHT22;38593;52.670;6.286;2022-07-23T01:50:01;14.30;99.90
52697;DHT22;38593;52.670;6.286;2022-07-23T01:52:27;14.30;99.90
52697;DHT22;38593;52.670;6.286;2022-07-23T01:54:52;14.30;99.90
52697;DHT22;38593;52.670;6.286;2022-07-23T01:57:18;14.30;99.90
52697;DHT22;38593;52.670;6.286;2022-07-23T01:59:43;14.30;99.90
52697;DHT22;38593;52.670;6.286;2022-07-23T02:02:09;14.20;99.90
52697;DHT22;38593;52.670;6.286;2022-07-23T02:04:35;14.20;99.90
52697;DHT22;38593;52.670;6.286;2022-07-23T02:07:02;14.20;99.90
52697;DHT22;38593;52.670;6.286;2022-07-23T02:09:27;14.20;99.90
52697;DHT22;38593;52.670;6.286;2022-07-23T02:11:53;14.10;99.90
52697;DHT22;38593;52.670;6.286;2022-07-23T02:14:18;14.10;99.90
52697;DHT22;38593;52.670;6.286;2022-07-23T02:16:44;14.10;99.90
52697;DHT22;38593;52.670;6.286;2022-07-23T02:19:09;14.00;99.90
52697;DHT22;38593;52.670;6.286;2022-07-23T02:21:35;14.10;99.90
52697;DHT22;38593;52.670;6.286;2022-07-23T02:24:01;14.00;99.90
52697;DHT22;38593;52.670;6.286;2022-07-23T02:26:26;14.00;99.90
52697;DHT22;38593;52.670;6.286;2022-07-23T02:28:52;14.00;99.90
52697;DHT22;38593;52.670;6.286;2022-07-23T02:31:18;13.90;99.90
52697;DHT22;38593;52.670;6.286;2022-07-23T02:33:44;13.90;99.90
52697;DHT22;38593;52.670;6.286;2022-07-23T02:36:09;13.90;99.90
52697;DHT22;38593;52.670;6.286;2022-07-23T02:38:35;13.90;99.90
52697;DHT22;38593;52.670;6.286;2022-07-23T02:41:00;14.00;99.90
52697;DHT22;38593;52.670;6.286;2022-07-23T02:43:26;14.00;99.90
52697;DHT22;38593;52.670;6.286;2022-07-23T02:45:51;14.00;99.90
52697;DHT22;38593;52.670;6.286;2022-07-23T02:48:16;14.00;99.90
52697;DHT22;38593;52.670;6.286;2022-07-23T02:50:42;13.90;99.90
52697;DHT22;38593;52.670;6.286;2022-07-23T02:53:07;13.90;99.90
52697;DHT22;38593;52.670;6.286;2022-07-23T02:55:33;13.90;99.90
52697;DHT22;38593;52.670;6.286;2022-07-23T02:57:59;13.80;99.90
52697;DHT22;38593;52.670;6.286;2022-07-23T03:00:24;13.80;99.90
52697;DHT22;38593;52.670;6.286;2022-07-23T03:02:50;13.70;99.90
52697;DHT22;38593;52.670;6.286;2022-07-23T03:05:15;13.70;99.90
52697;DHT22;38593;52.670;6.286;2022-07-23T03:07:41;14.00;99.90
52697;DHT22;38593;52.670;6.286;2022-07-23T03:10:06;13.70;99.90
52697;DHT22;38593;52.670;6.286;2022-07-23T03:12:32;13.60;99.90
52697;DHT22;38593;52.670;6.286;2022-07-23T03:14:57;13.60;99.90
52697;DHT22;38593;52.670;6.286;2022-07-23T03:17:23;13.60;99.90
52697;DHT22;38593;52.670;6.286;2022-07-23T03:19:48;13.60;99.90
52697;DHT22;38593;52.670;6.286;2022-07-23T03:22:14;13.50;99.90
52697;DHT22;38593;52.670;6.286;2022-07-23T03:24:39;13.60;99.90
52697;DHT22;38593;52.670;6.286;2022-07-23T03:27:21;13.50;99.90
52697;DHT22;38593;52.670;6.286;2022-07-23T03:29:47;13.50;99.90
52697;DHT22;38593;52.670;6.286;2022-07-23T03:32:12;13.50;99.90
52697;DHT22;38593;52.670;6.286;2022-07-23T03:34:37;13.40;99.90
52697;DHT22;38593;52.670;6.286;2022-07-23T03:37:03;13.40;99.90
52697;DHT22;38593;52.670;6.286;2022-07-23T03:39:29;13.30;99.90
52697;DHT22;38593;52.670;6.286;2022-07-23T03:41:54;13.30;99.90
52697;DHT22;38593;52.670;6.286;2022-07-23T03:44:20;13.30;99.90
52697;DHT22;38593;52.670;6.286;2022-07-23T03:46:45;13.20;99.90
52697;DHT22;38593;52.670;6.286;2022-07-23T03:49:11;13.20;99.90
52697;DHT22;38593;52.670;6.286;2022-07-23T03:51:36;13.20;99.90
52697;DHT22;38593;52.670;6.286;2022-07-23T03:54:02;13.30;99.90
52697;DHT22;38593;52.670;6.286;2022-07-23T03:56:27;13.30;99.90
52697;DHT22;38593;52.670;6.286;2022-07-23T03:58:53;13.30;99.90
52697;DHT22;38593;52.670;6.286;2022-07-23T04:01:18;13.30;99.90
52697;DHT22;38593;52.670;6.286;2022-07-23T04:03:44;13.30;99.90
52697;DHT22;38593;52.670;6.286;2022-07-23T04:06:10;13.20;99.90
52697;DHT22;38593;52.670;6.286;2022-07-23T04:08:35;13.20;99.90
52697;DHT22;38593;52.670;6.286;2022-07-23T04:11:01;13.30;99.90
52697;DHT22;38593;52.670;6.286;2022-07-23T04:13:26;13.40;99.90
52697;DHT22;38593;52.670;6.286;2022-07-23T04:15:52;13.30;99.90
52697;DHT22;38593;52.670;6.286;2022-07-23T04:18:17;13.20;99.90
52697;DHT22;38593;52.670;6.286;2022-07-23T04:20:43;13.20;99.90
52697;DHT22;38593;52.670;6.286;2022-07-23T04:23:09;13.20;99.90
52697;DHT22;38593;52.670;6.286;2022-07-23T04:25:35;13.20;99.90
52697;DHT22;38593;52.670;6.286;2022-07-23T04:28:00;13.20;99.90
52697;DHT22;38593;52.670;6.286;2022-07-23T04:30:26;13.20;99.90
52697;DHT22;38593;52.670;6.286;2022-07-23T04:32:51;13.20;99.90
52697;DHT22;38593;52.670;6.286;2022-07-23T04:35:17;13.20;99.90
52697;DHT22;38593;52.670;6.286;2022-07-23T04:37:42;13.20;99.90
52697;DHT22;38593;52.670;6.286;2022-07-23T04:40:08;13.20;99.90
52697;DHT22;38593;52.670;6.286;2022-07-23T04:42:34;13.30;99.90
52697;DHT22;38593;52.670;6.286;2022-07-23T04:44:59;13.50;99.90
52697;DHT22;38593;52.670;6.286;2022-07-23T04:47:24;13.30;99.90
52697;DHT22;38593;52.670;6.286;2022-07-23T04:49:50;13.40;99.90
52697;DHT22;38593;52.670;6.286;2022-07-23T04:52:15;13.50;99.90
52697;DHT22;38593;52.670;6.286;2022-07-23T04:54:41;13.80;99.90
52697;DHT22;38593;52.670;6.286;2022-07-23T04:57:07;13.60;99.90
52697;DHT22;38593;52.670;6.286;2022-07-23T04:59:32;13.60;99.90
52697;DHT22;38593;52.670;6.286;2022-07-23T05:01:57;13.60;99.90
52697;DHT22;38593;52.670;6.286;2022-07-23T05:04:23;13.70;99.90
52697;DHT22;38593;52.670;6.286;2022-07-23T05:06:48;13.70;99.90
52697;DHT22;38593;52.670;6.286;2022-07-23T05:09:14;13.70;99.90
52697;DHT22;38593;52.670;6.286;2022-07-23T05:11:39;13.90;99.90
52697;DHT22;38593;52.670;6.286;2022-07-23T05:14:05;13.80;99.90
52697;DHT22;38593;52.670;6.286;2022-07-23T05:16:31;14.00;99.90
52697;DHT22;38593;52.670;6.286;2022-07-23T05:18:56;14.10;99.90
52697;DHT22;38593;52.670;6.286;2022-07-23T05:21:22;14.20;99.90
52697;DHT22;38593;52.670;6.286;2022-07-23T05:23:47;14.40;99.90
52697;DHT22;38593;52.670;6.286;2022-07-23T05:26:13;14.30;99.90
52697;DHT22;38593;52.670;6.286;2022-07-23T05:28:38;14.30;99.90
52697;DHT22;38593;52.670;6.286;2022-07-23T05:31:04;14.50;99.90
52697;DHT22;38593;52.670;6.286;2022-07-23T05:33:29;14.50;99.90
52697;DHT22;38593;52.670;6.286;2022-07-23T05:36:02;14.70;99.90
52697;DHT22;38593;52.670;6.286;2022-07-23T05:38:28;14.60;99.90
52697;DHT22;38593;52.670;6.286;2022-07-23T05:40:54;14.60;99.90
52697;DHT22;38593;52.670;6.286;2022-07-23T05:43:19;14.90;99.90
52697;DHT22;38593;52.670;6.286;2022-07-23T05:45:45;14.70;99.90
52697;DHT22;38593;52.670;6.286;2022-07-23T05:48:10;14.80;99.90
52697;DHT22;38593;52.670;6.286;2022-07-23T05:50:36;14.90;99.90
52697;DHT22;38593;52.670;6.286;2022-07-23T05:53:01;14.90;99.90
52697;DHT22;38593;52.670;6.286;2022-07-23T05:55:27;14.90;99.90
52697;DHT22;38593;52.670;6.286;2022-07-23T05:57:57;15.10;99.90
52697;DHT22;38593;52.670;6.286;2022-07-23T06:00:24;15.00;99.90
52697;DHT22;38593;52.670;6.286;2022-07-23T06:02:49;15.10;99.90
52697;DHT22;38593;52.670;6.286;2022-07-23T06:05:15;15.20;99.90
52697;DHT22;38593;52.670;6.286;2022-07-23T06:07:41;15.20;99.90
52697;DHT22;38593;52.670;6.286;2022-07-23T06:10:06;15.30;99.90
52697;DHT22;38593;52.670;6.286;2022-07-23T06:12:32;15.30;99.90
52697;DHT22;38593;52.670;6.286;2022-07-23T06:14:58;15.40;99.90
52697;DHT22;38593;52.670;6.286;2022-07-23T06:17:24;15.50;99.90
52697;DHT22;38593;52.670;6.286;2022-07-23T06:19:49;15.60;99.90
52697;DHT22;38593;52.670;6.286;2022-07-23T06:22:15;15.60;99.90
52697;DHT22;38593;52.670;6.286;2022-07-23T06:24:40;15.60;99.90
52697;DHT22;38593;52.670;6.286;2022-07-23T06:27:06;15.80;99.90
52697;DHT22;38593;52.670;6.286;2022-07-23T06:29:31;15.80;99.90
52697;DHT22;38593;52.670;6.286;2022-07-23T06:31:57;15.90;99.90
52697;DHT22;38593;52.670;6.286;2022-07-23T06:34:22;15.90;99.90
52697;DHT22;38593;52.670;6.286;2022-07-23T06:36:48;16.00;99.90
52697;DHT22;38593;52.670;6.286;2022-07-23T06:39:13;16.10;99.90
52697;DHT22;38593;52.670;6.286;2022-07-23T06:41:39;16.10;99.90
52697;DHT22;38593;52.670;6.286;2022-07-23T06:44:04;16.20;99.90
52697;DHT22;38593;52.670;6.286;2022-07-23T06:46:30;16.20;99.90
52697;DHT22;38593;52.670;6.286;2022-07-23T06:48:55;16.30;99.90
52697;DHT22;38593;52.670;6.286;2022-07-23T06:51:21;16.30;99.90
52697;DHT22;38593;52.670;6.286;2022-07-23T06:53:46;16.50;99.90
52697;DHT22;38593;52.670;6.286;2022-07-23T06:56:12;16.50;99.90
52697;DHT22;38593;52.670;6.286;2022-07-23T06:58:37;16.60;99.90
52697;DHT22;38593;52.670;6.286;2022-07-23T07:01:03;16.60;99.90
52697;DHT22;38593;52.670;6.286;2022-07-23T07:03:29;16.70;99.90
52697;DHT22;38593;52.670;6.286;2022-07-23T07:05:55;16.70;99.90
52697;DHT22;38593;52.670;6.286;2022-07-23T07:08:22;16.70;99.90
52697;DHT22;38593;52.670;6.286;2022-07-23T07:10:48;16.80;99.90
52697;DHT22;38593;52.670;6.286;2022-07-23T07:13:14;16.90;99.90
52697;DHT22;38593;52.670;6.286;2022-07-23T07:15:39;17.00;99.90
52697;DHT22;38593;52.670;6.286;2022-07-23T07:18:04;17.10;99.90
52697;DHT22;38593;52.670;6.286;2022-07-23T07:20:30;17.10;99.90
52697;DHT22;38593;52.670;6.286;2022-07-23T07:22:55;17.30;99.90
52697;DHT22;38593;52.670;6.286;2022-07-23T07:25:21;17.40;99.90
52697;DHT22;38593;52.670;6.286;2022-07-23T07:27:47;17.50;99.90
52697;DHT22;38593;52.670;6.286;2022-07-23T07:30:12;17.60;99.90
52697;DHT22;38593;52.670;6.286;2022-07-23T07:32:38;17.70;99.90
52697;DHT22;38593;52.670;6.286;2022-07-23T07:35:04;17.80;99.90
52697;DHT22;38593;52.670;6.286;2022-07-23T07:37:29;17.80;99.90
52697;DHT22;38593;52.670;6.286;2022-07-23T07:39:55;17.70;99.90
52697;DHT22;38593;52.670;6.286;2022-07-23T07:42:20;17.80;99.90
52697;DHT22;38593;52.670;6.286;2022-07-23T07:44:46;17.80;99.90
52697;DHT22;38593;52.670;6.286;2022-07-23T07:47:11;17.90;99.90
52697;DHT22;38593;52.670;6.286;2022-07-23T07:49:37;18.00;99.90
52697;DHT22;38593;52.670;6.286;2022-07-23T07:52:02;18.00;99.90
52697;DHT22;38593;52.670;6.286;2022-07-23T07:54:28;18.10;99.90
52697;DHT22;38593;52.670;6.286;2022-07-23T07:56:53;18.20;99.90
52697;DHT22;38593;52.670;6.286;2022-07-23T07:59:19;18.30;99.90
52697;DHT22;38593;52.670;6.286;2022-07-23T08:01:44;18.40;99.90
52697;DHT22;38593;52.670;6.286;2022-07-23T08:04:10;18.50;99.90
52697;DHT22;38593;52.670;6.286;2022-07-23T08:06:36;18.50;99.90
52697;DHT22;38593;52.670;6.286;2022-07-23T08:09:01;18.50;99.90
52697;DHT22;38593;52.670;6.286;2022-07-23T08:11:27;18.60;99.90
52697;DHT22;38593;52.670;6.286;2022-07-23T08:13:52;18.60;99.90
52697;DHT22;38593;52.670;6.286;2022-07-23T08:16:18;18.90;99.90
52697;DHT22;38593;52.670;6.286;2022-07-23T08:18:43;18.60;99.90
52697;DHT22;38593;52.670;6.286;2022-07-23T08:21:09;18.60;99.90
52697;DHT22;38593;52.670;6.286;2022-07-23T08:23:34;18.50;99.90
52697;DHT22;38593;52.670;6.286;2022-07-23T08:26:00;18.40;99.90
52697;DHT22;38593;52.670;6.286;2022-07-23T08:28:26;18.30;99.90
52697;DHT22;38593;52.670;6.286;2022-07-23T08:30:51;18.20;99.90
52697;DHT22;38593;52.670;6.286;2022-07-23T08:33:18;18.20;99.90
52697;DHT22;38593;52.670;6.286;2022-07-23T08:35:47;18.20;99.90
52697;DHT22;38593;52.670;6.286;2022-07-23T08:38:14;18.30;99.90
52697;DHT22;38593;52.670;6.286;2022-07-23T08:40:41;18.70;99.90
52697;DHT22;38593;52.670;6.286;2022-07-23T08:43:08;18.80;99.90
52697;DHT22;38593;52.670;6.286;2022-07-23T08:45:35;18.80;99.90
52697;DHT22;38593;52.670;6.286;2022-07-23T08:48:02;18.70;99.90
52697;DHT22;38593;52.670;6.286;2022-07-23T08:50:28;18.60;99.90
52697;DHT22;38593;52.670;6.286;2022-07-23T08:52:54;18.50;99.90
52697;DHT22;38593;52.670;6.286;2022-07-23T08:55:20;18.50;99.90
52697;DHT22;38593;52.670;6.286;2022-07-23T08:57:47;18.50;99.90
52697;DHT22;38593;52.670;6.286;2022-07-23T09:00:14;18.50;99.90
52697;DHT22;38593;52.670;6.286;2022-07-23T09:02:40;18.50;99.90
52697;DHT22;38593;52.670;6.286;2022-07-23T09:05:06;18.60;99.90
52697;DHT22;38593;52.670;6.286;2022-07-23T09:07:31;18.60;99.90
52697;DHT22;38593;52.670;6.286;2022-07-23T09:10:07;18.70;99.90
52697;DHT22;38593;52.670;6.286;2022-07-23T09:12:33;18.80;99.90
52697;DHT22;38593;52.670;6.286;2022-07-23T09:15:03;19.20;99.90
52697;DHT22;38593;52.670;6.286;2022-07-23T09:17:29;19.50;99.90
52697;DHT22;38593;52.670;6.286;2022-07-23T09:20:14;19.90;99.90
52697;DHT22;38593;52.670;6.286;2022-07-23T09:22:46;20.30;99.90
52697;DHT22;38593;52.670;6.286;2022-07-23T09:30:10;20.10;99.90
52697;DHT22;38593;52.670;6.286;2022-07-23T09:32:36;20.10;99.90
52697;DHT22;38593;52.670;6.286;2022-07-23T09:35:01;20.10;99.90
52697;DHT22;38593;52.670;6.286;2022-07-23T09:37:27;20.00;99.90
52697;DHT22;38593;52.670;6.286;2022-07-23T09:39:52;20.00;99.90
52697;DHT22;38593;52.670;6.286;2022-07-23T09:42:28;20.30;99.90
52697;DHT22;38593;52.670;6.286;2022-07-23T09:44:54;20.70;99.90
52697;DHT22;38593;52.670;6.286;2022-07-23T09:47:20;21.10;99.30
52697;DHT22;38593;52.670;6.286;2022-07-23T09:50:19;21.40;99.80
52697;DHT22;38593;52.670;6.286;2022-07-23T09:52:43;21.60;98.30
52697;DHT22;38593;52.670;6.286;2022-07-23T09:55:09;21.70;98.30
52697;DHT22;38593;52.670;6.286;2022-07-23T09:57:35;21.50;96.30
52697;DHT22;38593;52.670;6.286;2022-07-23T10:00:02;21.30;96.60
52697;DHT22;38593;52.670;6.286;2022-07-23T10:02:28;21.00;97.40
52697;DHT22;38593;52.670;6.286;2022-07-23T10:04:55;21.30;97.70
52697;DHT22;38593;52.670;6.286;2022-07-23T10:07:21;21.40;97.60
52697;DHT22;38593;52.670;6.286;2022-07-23T10:09:47;21.40;97.20
52697;DHT22;38593;52.670;6.286;2022-07-23T10:12:14;21.30;97.20
52697;DHT22;38593;52.670;6.286;2022-07-23T10:14:39;21.10;97.20
52697;DHT22;38593;52.670;6.286;2022-07-23T10:17:05;21.20;96.90
52697;DHT22;38593;52.670;6.286;2022-07-23T10:19:31;21.50;97.30
52697;DHT22;38593;52.670;6.286;2022-07-23T10:21:58;21.50;95.70
52697;DHT22;38593;52.670;6.286;2022-07-23T10:29:57;21.60;96.80
52697;DHT22;38593;52.670;6.286;2022-07-23T10:34:52;21.50;95.80
52697;DHT22;38593;52.670;6.286;2022-07-23T10:37:21;21.40;96.10
52697;DHT22;38593;52.670;6.286;2022-07-23T10:40:24;21.30;96.30
52697;DHT22;38593;52.670;6.286;2022-07-23T10:42:43;21.20;95.80
52697;DHT22;38593;52.670;6.286;2022-07-23T10:45:26;21.30;96.80
52697;DHT22;38593;52.670;6.286;2022-07-23T10:47:52;21.30;96.30
52697;DHT22;38593;52.670;6.286;2022-07-23T10:53:28;21.10;95.60
52697;DHT22;38593;52.670;6.286;2022-07-23T10:57:54;21.20;96.20
52697;DHT22;38593;52.670;6.286;2022-07-23T11:00:21;21.30;95.70
52697;DHT22;38593;52.670;6.286;2022-07-23T11:02:48;21.30;96.30
52697;DHT22;38593;52.670;6.286;2022-07-23T11:05:17;21.20;95.70
52697;DHT22;38593;52.670;6.286;2022-07-23T11:16:41;21.30;95.40
52697;DHT22;38593;52.670;6.286;2022-07-23T11:24:06;21.30;95.40
52697;DHT22;38593;52.670;6.286;2022-07-23T11:31:54;21.20;95.60
52697;DHT22;38593;52.670;6.286;2022-07-23T11:37:03;21.30;96.10
52697;DHT22;38593;52.670;6.286;2022-07-23T11:39:29;21.30;96.20
52697;DHT22;38593;52.670;6.286;2022-07-23T11:41:56;21.40;96.20
52697;DHT22;38593;52.670;6.286;2022-07-23T11:44:32;21.50;95.90
52697;DHT22;38593;52.670;6.286;2022-07-23T11:46:58;21.40;95.10
52697;DHT22;38593;52.670;6.286;2022-07-23T11:49:24;21.30;95.60
52697;DHT22;38593;52.670;6.286;2022-07-23T11:52:09;21.30;95.90
52697;DHT22;38593;52.670;6.286;2022-07-23T11:54:36;21.50;96.20
52697;DHT22;38593;52.670;6.286;2022-07-23T11:57:02;21.60;95.60
52697;DHT22;38593;52.670;6.286;2022-07-23T11:59:32;21.70;95.70
52697;DHT22;38593;52.670;6.286;2022-07-23T12:01:59;21.80;95.50
52697;DHT22;38593;52.670;6.286;2022-07-23T12:04:46;21.90;95.70
52697;DHT22;38593;52.670;6.286;2022-07-23T12:09:55;22.40;95.30
52697;DHT22;38593;52.670;6.286;2022-07-23T12:12:21;22.50;95.20
52697;DHT22;38593;52.670;6.286;2022-07-23T12:14:56;22.50;94.70
52697;DHT22;38593;52.670;6.286;2022-07-23T12:17:29;22.30;93.80
52697;DHT22;38593;52.670;6.286;2022-07-23T12:19:58;22.20;94.30
52697;DHT22;38593;52.670;6.286;2022-07-23T12:22:25;22.20;94.30
52697;DHT22;38593;52.670;6.286;2022-07-23T12:24:54;22.10;94.30
52697;DHT22;38593;52.670;6.286;2022-07-23T12:27:21;22.20;94.80
52697;DHT22;38593;52.670;6.286;2022-07-23T12:29:47;22.30;94.90
52697;DHT22;38593;52.670;6.286;2022-07-23T12:32:16;22.30;94.60
52697;DHT22;38593;52.670;6.286;2022-07-23T12:34:42;22.40;95.20
52697;DHT22;38593;52.670;6.286;2022-07-23T12:37:08;22.50;95.00
52697;DHT22;38593;52.670;6.286;2022-07-23T12:39:33;22.60;94.60
52697;DHT22;38593;52.670;6.286;2022-07-23T12:41:59;22.50;93.80
52697;DHT22;38593;52.670;6.286;2022-07-23T12:44:24;22.40;94.40
52697;DHT22;38593;52.670;6.286;2022-07-23T12:46:51;22.50;94.60
52697;DHT22;38593;52.670;6.286;2022-07-23T12:49:25;22.50;94.40
52697;DHT22;38593;52.670;6.286;2022-07-23T12:51:51;22.60;94.40
52697;DHT22;38593;52.670;6.286;2022-07-23T12:54:16;22.60;94.80
52697;DHT22;38593;52.670;6.286;2022-07-23T12:56:44;22.70;94.60
52697;DHT22;38593;52.670;6.286;2022-07-23T12:59:10;22.80;94.60
52697;DHT22;38593;52.670;6.286;2022-07-23T13:01:36;23.00;94.30
52697;DHT22;38593;52.670;6.286;2022-07-23T13:06:32;23.00;93.90
52697;DHT22;38593;52.670;6.286;2022-07-23T13:08:57;23.10;94.50
52697;DHT22;38593;52.670;6.286;2022-07-23T13:11:23;23.20;94.20
52697;DHT22;38593;52.670;6.286;2022-07-23T13:13:49;23.20;94.20
52697;DHT22;38593;52.670;6.286;2022-07-23T13:16:14;23.30;93.40
52697;DHT22;38593;52.670;6.286;2022-07-23T13:18:40;23.30;94.00
52697;DHT22;38593;52.670;6.286;2022-07-23T13:21:06;23.30;93.80
52697;DHT22;38593;52.670;6.286;2022-07-23T13:23:31;23.40;93.40
52697;DHT22;38593;52.670;6.286;2022-07-23T13:25:57;23.50;93.60
52697;DHT22;38593;52.670;6.286;2022-07-23T13:28:22;23.50;93.90
52697;DHT22;38593;52.670;6.286;2022-07-23T13:30:49;23.50;93.40
52697;DHT22;38593;52.670;6.286;2022-07-23T13:33:15;23.50;92.80
52697;DHT22;38593;52.670;6.286;2022-07-23T13:35:41;23.50;93.50
52697;DHT22;38593;52.670;6.286;2022-07-23T13:38:07;23.50;93.30
52697;DHT22;38593;52.670;6.286;2022-07-23T13:40:33;23.60;93.40
52697;DHT22;38593;52.670;6.286;2022-07-23T13:42:59;23.60;93.10
52697;DHT22;38593;52.670;6.286;2022-07-23T13:45:25;23.70;92.30
52697;DHT22;38593;52.670;6.286;2022-07-23T13:47:50;23.80;93.40
52697;DHT22;38593;52.670;6.286;2022-07-23T13:50:16;23.90;92.70
52697;DHT22;38593;52.670;6.286;2022-07-23T13:52:42;24.10;93.00
52697;DHT22;38593;52.670;6.286;2022-07-23T13:55:08;24.10;92.60
52697;DHT22;38593;52.670;6.286;2022-07-23T13:57:33;24.10;92.60
52697;DHT22;38593;52.670;6.286;2022-07-23T13:59:59;24.30;92.80
52697;DHT22;38593;52.670;6.286;2022-07-23T14:02:25;24.40;92.50
52697;DHT22;38593;52.670;6.286;2022-07-23T14:04:50;24.50;92.30
52697;DHT22;38593;52.670;6.286;2022-07-23T14:07:16;24.50;91.90
52697;DHT22;38593;52.670;6.286;2022-07-23T14:09:42;24.50;92.20
52697;DHT22;38593;52.670;6.286;2022-07-23T14:12:07;24.50;91.40
52697;DHT22;38593;52.670;6.286;2022-07-23T14:14:33;24.50;91.80
52697;DHT22;38593;52.670;6.286;2022-07-23T14:16:59;24.50;92.10
52697;DHT22;38593;52.670;6.286;2022-07-23T14:19:24;24.50;91.70
52697;DHT22;38593;52.670;6.286;2022-07-23T14:21:50;24.60;91.50
52697;DHT22;38593;52.670;6.286;2022-07-23T14:24:16;24.60;91.60
52697;DHT22;38593;52.670;6.286;2022-07-23T14:26:41;24.60;91.80
52697;DHT22;38593;52.670;6.286;2022-07-23T14:29:07;24.70;91.90
52697;DHT22;38593;52.670;6.286;2022-07-23T14:31:32;24.90;91.70
52697;DHT22;38593;52.670;6.286;2022-07-23T14:33:58;24.90;91.10
52697;DHT22;38593;52.670;6.286;2022-07-23T14:36:24;24.90;91.50
52697;DHT22;38593;52.670;6.286;2022-07-23T14:38:49;24.90;91.70
52697;DHT22;38593;52.670;6.286;2022-07-23T14:41:15;25.00;91.10
52697;DHT22;38593;52.670;6.286;2022-07-23T14:43:40;24.90;91.20
52697;DHT22;38593;52.670;6.286;2022-07-23T14:46:07;24.90;91.30
52697;DHT22;38593;52.670;6.286;2022-07-23T14:48:33;24.80;90.70
52697;DHT22;38593;52.670;6.286;2022-07-23T14:50:58;24.70;90.50
52697;DHT22;38593;52.670;6.286;2022-07-23T14:53:24;24.80;91.00
52697;DHT22;38593;52.670;6.286;2022-07-23T14:55:49;24.90;91.20
52697;DHT22;38593;52.670;6.286;2022-07-23T14:58:15;25.00;91.00
52697;DHT22;38593;52.670;6.286;2022-07-23T15:00:40;25.10;90.90
52697;DHT22;38593;52.670;6.286;2022-07-23T15:03:06;25.10;90.90
52697;DHT22;38593;52.670;6.286;2022-07-23T15:05:31;25.20;90.60
52697;DHT22;38593;52.670;6.286;2022-07-23T15:07:57;25.20;90.60
52697;DHT22;38593;52.670;6.286;2022-07-23T15:10:22;25.00;90.40
52697;DHT22;38593;52.670;6.286;2022-07-23T15:12:48;24.90;90.70
52697;DHT22;38593;52.670;6.286;2022-07-23T15:15:14;24.70;90.70
52697;DHT22;38593;52.670;6.286;2022-07-23T15:17:39;24.70;91.20
52697;DHT22;38593;52.670;6.286;2022-07-23T15:20:06;24.60;90.60
52697;DHT22;38593;52.670;6.286;2022-07-23T15:22:32;24.70;91.10
52697;DHT22;38593;52.670;6.286;2022-07-23T15:24:57;24.70;90.90
52697;DHT22;38593;52.670;6.286;2022-07-23T15:27:23;24.70;90.50
52697;DHT22;38593;52.670;6.286;2022-07-23T15:29:48;24.60;90.30
52697;DHT22;38593;52.670;6.286;2022-07-23T15:32:14;24.40;90.60
52697;DHT22;38593;52.670;6.286;2022-07-23T15:34:39;24.40;90.80
52697;DHT22;38593;52.670;6.286;2022-07-23T15:37:05;24.20;90.80
52697;DHT22;38593;52.670;6.286;2022-07-23T15:39:31;24.10;90.80
52697;DHT22;38593;52.670;6.286;2022-07-23T15:41:58;23.90;90.80
52697;DHT22;38593;52.670;6.286;2022-07-23T15:44:24;23.70;90.90
52697;DHT22;38593;52.670;6.286;2022-07-23T15:46:49;23.60;91.20
52697;DHT22;38593;52.670;6.286;2022-07-23T15:49:14;23.60;91.40
52697;DHT22;38593;52.670;6.286;2022-07-23T15:51:40;23.60;91.80
52697;DHT22;38593;52.670;6.286;2022-07-23T15:54:06;23.60;91.80
52697;DHT22;38593;52.670;6.286;2022-07-23T15:56:31;23.60;91.90
52697;DHT22;38593;52.670;6.286;2022-07-23T15:58:57;23.70;92.00
52697;DHT22;38593;52.670;6.286;2022-07-23T16:01:22;23.90;92.10
52697;DHT22;38593;52.670;6.286;2022-07-23T16:03:48;24.10;91.70
52697;DHT22;38593;52.670;6.286;2022-07-23T16:06:14;24.20;91.60
52697;DHT22;38593;52.670;6.286;2022-07-23T16:08:39;24.20;91.20
52697;DHT22;38593;52.670;6.286;2022-07-23T16:11:05;24.20;91.20